Debi Sharp — WDE8185 — position and weather

sailwx.info

Track history (hours):
 
Tides and Currents Weather Stations Pressure Air Temp Water Temp Dewpoint Dewpoint Depression Visibility Wind Speed Wind Dir Waves Ship Positions

Debi Sharp

Owner: Crounse Corporation, Maysville, KY. More information available from US FCC via Universal Licensing System and Coast Guard Vessel Documentation Center.

Last reported at 2015-Aug-03 08:32 UTC. Time now 2015-Aug-03 08:40 UTC.
Position N 38°48' W 084°10'.

Length 41 m.

Type: Towing. MMSI: 367402530.

Date/timePositionNaut miles runAvg speedWind from/ knotsBaromVisibWave heightAir tempDewpointWater temp
2015-Aug-03 08:32N 38°48' W 084°10'2 2.1
2015-Aug-03 07:33N 38°48' W 084°13'4 4.2
2015-Aug-03 06:33N 38°53' W 084°14'4 4.1
2015-Aug-03 05:33N 38°56' W 084°17'4 4.2
2015-Aug-03 04:33N 39°00' W 084°18'4 4.1
2015-Aug-03 03:33N 39°03' W 084°23'3 3.2
2015-Aug-03 02:33N 39°04' W 084°26'3 3.5
2015-Aug-03 01:33N 39°07' W 084°28'4 3.7
2015-Aug-03 00:33N 39°06' W 084°33'4 4.0
2015-Aug-02 23:33N 39°04' W 084°38'4 4.0
2015-Aug-02 22:32N 39°07' W 084°42'4 3.5
2015-Aug-02 21:33N 39°08' W 084°46'24 2.7
2015-Aug-02 12:30N 38°46' W 084°60'1 0.6
2015-Aug-02 11:24N 38°46' W 085°00'  
2015-Jul-30 06:11N 38°54' W 084°52'2 3.5
2015-Jul-30 05:33N 38°56' W 084°51'4 3.9
2015-Jul-30 04:33N 38°60' W 084°51'4 4.2
2015-Jul-30 03:31N 39°04' W 084°53'5 4.7
2015-Jul-30 02:33N 39°06' W 084°49'4 4.2
2015-Jul-30 01:33N 39°08' W 084°44'5 4.7
2015-Jul-30 00:32N 39°05' W 084°39'4 4.3
2015-Jul-29 23:33N 39°05' W 084°34'6 5.6
2015-Jul-29 22:33N 39°07' W 084°27'4 4.2
2015-Jul-29 21:33N 39°03' W 084°25'4 4.4
2015-Jul-29 20:33N 39°01' W 084°19'4 4.5
2015-Jul-29 19:33N 38°57' W 084°17'5 4.7
2015-Jul-29 18:33N 38°53' W 084°14'5 4.6
2015-Jul-29 17:33N 38°49' W 084°13'3 2.5
2015-Jul-29 16:33N 38°48' W 084°10'1 1.4
2015-Jul-29 15:34N 38°47' W 084°08'9 4.2
2015-Jul-29 13:31N 38°47' W 083°58'4 4.4
2015-Jul-29 12:31N 38°46' W 083°52'6 4.2
2015-Jul-29 11:09N 38°41' W 083°47'19 3.3
2015-Jul-29 05:25N 38°40' W 083°23'15 0.3
2015-Jul-27 09:31N 38°38' W 083°42'5 3.8
2015-Jul-27 08:19N 38°41' W 083°47'3 3.9
2015-Jul-27 07:34N 38°43' W 083°50'4 4.2
2015-Jul-27 06:33N 38°46' W 083°53'5 4.1
2015-Jul-27 05:17N 38°47' W 083°60'3 3.7
2015-Jul-27 04:33N 38°46' W 084°03'5 4.7
2015-Jul-27 03:33N 38°48' W 084°09'2 1.9
2015-Jul-27 02:32N 38°48' W 084°12'1 1.1
2015-Jul-27 01:33N 38°48' W 084°13'4 3.7
2015-Jul-27 00:33N 38°52' W 084°14'4 3.6
2015-Jul-26 23:33N 38°55' W 084°16'4 3.7
2015-Jul-26 22:33N 38°59' W 084°18'4 3.6
2015-Jul-26 21:33N 39°02' W 084°20'4 3.8
2015-Jul-26 20:33N 39°03' W 084°25'4 3.7
2015-Jul-26 19:33N 39°06' W 084°26'3 2.9
2015-Jul-26 18:33N 39°06' W 084°30'3 3.2
2015-Jul-26 17:33N 39°05' W 084°34'4 3.7
2015-Jul-26 16:33N 39°05' W 084°39'4 4.0
2015-Jul-26 15:33N 39°08' W 084°43'3 3.3
2015-Jul-26 14:33N 39°07' W 084°47'5 4.2
2015-Jul-26 13:20N 39°04' W 084°53'7 3.7
2015-Jul-26 11:26N 38°57' W 084°50'  
Track history (hours):
 
Tides and Currents Weather Stations Pressure Air Temp Water Temp Dewpoint Dewpoint Depression Visibility Wind Speed Wind Dir Waves Ship Positions

Debi Sharp

Owner: Crounse Corporation, Maysville, KY. More information available from US FCC via Universal Licensing System and Coast Guard Vessel Documentation Center.

Last reported at 2015-Aug-03 08:32 UTC. Time now 2015-Aug-03 08:40 UTC.
Position N 38°48' W 084°10'.

Length 41 m.

Type: Towing. MMSI: 367402530.

Date/timePositionNaut miles runAvg speedWind from/ knotsBaromVisibWave heightAir tempDewpointWater temp
2015-Aug-03 08:32N 38°48' W 084°10'2 2.1
2015-Aug-03 07:33N 38°48' W 084°13'4 4.2
2015-Aug-03 06:33N 38°53' W 084°14'4 4.1
2015-Aug-03 05:33N 38°56' W 084°17'4 4.2
2015-Aug-03 04:33N 39°00' W 084°18'4 4.1
2015-Aug-03 03:33N 39°03' W 084°23'3 3.2
2015-Aug-03 02:33N 39°04' W 084°26'3 3.5
2015-Aug-03 01:33N 39°07' W 084°28'4 3.7
2015-Aug-03 00:33N 39°06' W 084°33'4 4.0
2015-Aug-02 23:33N 39°04' W 084°38'4 4.0
2015-Aug-02 22:32N 39°07' W 084°42'4 3.5
2015-Aug-02 21:33N 39°08' W 084°46'24 2.7
2015-Aug-02 12:30N 38°46' W 084°60'1 0.6
2015-Aug-02 11:24N 38°46' W 085°00'  
2015-Jul-30 06:11N 38°54' W 084°52'2 3.5
2015-Jul-30 05:33N 38°56' W 084°51'4 3.9
2015-Jul-30 04:33N 38°60' W 084°51'4 4.2
2015-Jul-30 03:31N 39°04' W 084°53'5 4.7
2015-Jul-30 02:33N 39°06' W 084°49'4 4.2
2015-Jul-30 01:33N 39°08' W 084°44'5 4.7
2015-Jul-30 00:32N 39°05' W 084°39'4 4.3
2015-Jul-29 23:33N 39°05' W 084°34'6 5.6
2015-Jul-29 22:33N 39°07' W 084°27'4 4.2
2015-Jul-29 21:33N 39°03' W 084°25'4 4.4
2015-Jul-29 20:33N 39°01' W 084°19'4 4.5
2015-Jul-29 19:33N 38°57' W 084°17'5 4.7
2015-Jul-29 18:33N 38°53' W 084°14'5 4.6
2015-Jul-29 17:33N 38°49' W 084°13'3 2.5
2015-Jul-29 16:33N 38°48' W 084°10'1 1.4
2015-Jul-29 15:34N 38°47' W 084°08'9 4.2
2015-Jul-29 13:31N 38°47' W 083°58'4 4.4
2015-Jul-29 12:31N 38°46' W 083°52'6 4.2
2015-Jul-29 11:09N 38°41' W 083°47'19 3.3
2015-Jul-29 05:25N 38°40' W 083°23'15 0.3
2015-Jul-27 09:31N 38°38' W 083°42'5 3.8
2015-Jul-27 08:19N 38°41' W 083°47'3 3.9
2015-Jul-27 07:34N 38°43' W 083°50'4 4.2
2015-Jul-27 06:33N 38°46' W 083°53'5 4.1
2015-Jul-27 05:17N 38°47' W 083°60'3 3.7
2015-Jul-27 04:33N 38°46' W 084°03'5 4.7
2015-Jul-27 03:33N 38°48' W 084°09'2 1.9
2015-Jul-27 02:32N 38°48' W 084°12'1 1.1
2015-Jul-27 01:33N 38°48' W 084°13'4 3.7
2015-Jul-27 00:33N 38°52' W 084°14'4 3.6
2015-Jul-26 23:33N 38°55' W 084°16'4 3.7
2015-Jul-26 22:33N 38°59' W 084°18'4 3.6
2015-Jul-26 21:33N 39°02' W 084°20'4 3.8
2015-Jul-26 20:33N 39°03' W 084°25'4 3.7
2015-Jul-26 19:33N 39°06' W 084°26'3 2.9
2015-Jul-26 18:33N 39°06' W 084°30'3 3.2
2015-Jul-26 17:33N 39°05' W 084°34'4 3.7
2015-Jul-26 16:33N 39°05' W 084°39'4 4.0
2015-Jul-26 15:33N 39°08' W 084°43'3 3.3
2015-Jul-26 14:33N 39°07' W 084°47'5 4.2
2015-Jul-26 13:20N 39°04' W 084°53'7 3.7
2015-Jul-26 11:26N 38°57' W 084°50'  

Dump ship's entire track history